Terminal Aerodrome Forecast
Issued by NWS Cleveland, OH

Home | Current Version | Previous Version | Graphics & Text | Print | Product List | Glossary Off
Versions: 1 2 3 4 5 6 7 8 9 10 11 12 13 14 15 16 17 18 19 20 21 22 23 24 25 26 27 28 29 30 31

000
FTUS41 KCLE 250100 AAB
TAFCLE
TAF AMD
KCLE 250150Z 2502/2606 24010KT 5SM BR SCT025 OVC030
     FM250600 25008KT 5SM BR OVC019
     FM251100 35005KT 5SM -SHSN BR OVC008
     FM251300 36006KT 2SM -SN BR OVC008
     FM251600 04008KT 1SM -SN BR OVC006
     FM251800 05010G20KT 3SM -SN BR OVC015
     FM252300 04012KT 6SM BR VCSH BKN015 OVC020=

USA.gov is the U.S. government's official web portal to all federal, state and local government web resources and services.